Terminal Aerodrome Forecast
Issued by NWS Shreveport, LA

Home | Current Version | Previous Version | Text Only | Print | Product List | Glossary On
Versions: 1 2 3 4 5 6 7 8 9 10 11 12 13 14
000
FTUS44 KSHV 021733
TAFGGG
TAF
KGGG 021733Z 0218/0318 23012G22KT P6SM SCT040 SCT150 SCT250
     FM022300 21008KT P6SM FEW050 SCT180 BKN250
     FM031200 19005KT P6SM FEW010 BKN150 OVC250
      TEMPO 0312/0315 BKN010
     FM031500 21010KT P6SM SCT015 OVC150=

USA.gov is the U.S. government's official web portal to all federal, state and local government web resources and services.